sensor_id;sensor_type;location;lat;lon;timestamp;pressure;altitude;pressure_sealevel;temperature;humidity
19845;BME280;10083;51.038;7.012;2023-06-04T00:00:31;103138.00;;;14.18;100.00
19845;BME280;10083;51.038;7.012;2023-06-04T00:02:59;103154.16;;;14.09;100.00
19845;BME280;10083;51.038;7.012;2023-06-04T00:05:27;103104.72;;;14.33;100.00
19845;BME280;10083;51.038;7.012;2023-06-04T00:07:59;103120.00;;;14.26;100.00
19845;BME280;10083;51.038;7.012;2023-06-04T00:10:26;103147.84;;;14.15;100.00
19845;BME280;10083;51.038;7.012;2023-06-04T00:12:54;103155.94;;;13.99;100.00
19845;BME280;10083;51.038;7.012;2023-06-04T00:15:23;103145.16;;;14.24;100.00
19845;BME280;10083;51.038;7.012;2023-06-04T00:17:53;103114.63;;;14.10;100.00
19845;BME280;10083;51.038;7.012;2023-06-04T00:20:22;103139.75;;;13.98;100.00
19845;BME280;10083;51.038;7.012;2023-06-04T00:22:53;103222.25;;;13.56;100.00
19845;BME280;10083;51.038;7.012;2023-06-04T00:25:23;103233.91;;;13.54;100.00
19845;BME280;10083;51.038;7.012;2023-06-04T00:27:51;103253.66;;;13.56;100.00
19845;BME280;10083;51.038;7.012;2023-06-04T00:30:18;103262.63;;;13.55;100.00
19845;BME280;10083;51.038;7.012;2023-06-04T00:32:48;103278.72;;;13.41;100.00
19845;BME280;10083;51.038;7.012;2023-06-04T00:35:16;103271.50;;;13.40;100.00
19845;BME280;10083;51.038;7.012;2023-06-04T00:38:02;103289.44;;;13.34;100.00
19845;BME280;10083;51.038;7.012;2023-06-04T00:40:29;103275.13;;;13.39;100.00
19845;BME280;10083;51.038;7.012;2023-06-04T00:43:07;103289.34;;;13.23;100.00
19845;BME280;10083;51.038;7.012;2023-06-04T00:45:34;103318.94;;;13.19;100.00
19845;BME280;10083;51.038;7.012;2023-06-04T00:48:03;103341.31;;;13.14;100.00
19845;BME280;10083;51.038;7.012;2023-06-04T00:50:31;103368.06;;;12.98;100.00
19845;BME280;10083;51.038;7.012;2023-06-04T00:53:01;103386.72;;;12.80;100.00
19845;BME280;10083;51.038;7.012;2023-06-04T00:55:50;103437.81;;;12.78;100.00
19845;BME280;10083;51.038;7.012;2023-06-04T00:58:20;103443.09;;;12.72;100.00
19845;BME280;10083;51.038;7.012;2023-06-04T01:00:49;103460.00;;;12.62;100.00
19845;BME280;10083;51.038;7.012;2023-06-04T01:03:20;103474.25;;;12.53;100.00
19845;BME280;10083;51.038;7.012;2023-06-04T01:06:13;103506.34;;;12.41;100.00
19845;BME280;10083;51.038;7.012;2023-06-04T01:08:46;103508.97;;;12.37;100.00
19845;BME280;10083;51.038;7.012;2023-06-04T01:11:38;103541.78;;;12.14;100.00
19845;BME280;10083;51.038;7.012;2023-06-04T01:14:08;103540.72;;;12.03;100.00
19845;BME280;10083;51.038;7.012;2023-06-04T01:16:39;103550.53;;;12.00;100.00
19845;BME280;10083;51.038;7.012;2023-06-04T01:19:45;103552.38;;;12.05;100.00
19845;BME280;10083;51.038;7.012;2023-06-04T01:22:29;103570.88;;;11.86;100.00
19845;BME280;10083;51.038;7.012;2023-06-04T01:25:04;103555.22;;;12.14;100.00
19845;BME280;10083;51.038;7.012;2023-06-04T01:27:32;103590.44;;;11.77;100.00
19845;BME280;10083;51.038;7.012;2023-06-04T01:30:01;103598.16;;;11.62;100.00
19845;BME280;10083;51.038;7.012;2023-06-04T01:32:30;103618.41;;;11.45;100.00
19845;BME280;10083;51.038;7.012;2023-06-04T01:34:59;103613.03;;;11.43;100.00
19845;BME280;10083;51.038;7.012;2023-06-04T01:37:27;103621.09;;;11.43;100.00
19845;BME280;10083;51.038;7.012;2023-06-04T01:39:54;103618.22;;;11.35;100.00
19845;BME280;10083;51.038;7.012;2023-06-04T01:42:23;103616.47;;;11.36;100.00
19845;BME280;10083;51.038;7.012;2023-06-04T01:44:50;103623.69;;;11.39;100.00
19845;BME280;10083;51.038;7.012;2023-06-04T01:47:18;103629.53;;;11.19;100.00
19845;BME280;10083;51.038;7.012;2023-06-04T01:49:45;103629.59;;;11.21;100.00
19845;BME280;10083;51.038;7.012;2023-06-04T01:52:14;103621.53;;;11.21;100.00
19845;BME280;10083;51.038;7.012;2023-06-04T01:54:44;103623.19;;;11.14;100.00
19845;BME280;10083;51.038;7.012;2023-06-04T01:57:16;103628.34;;;11.05;100.00
19845;BME280;10083;51.038;7.012;2023-06-04T01:59:50;103632.75;;;11.00;100.00
19845;BME280;10083;51.038;7.012;2023-06-04T02:02:17;103636.22;;;10.96;100.00
19845;BME280;10083;51.038;7.012;2023-06-04T02:04:45;103641.50;;;10.92;100.00
19845;BME280;10083;51.038;7.012;2023-06-04T02:07:17;103654.00;;;10.91;100.00
19845;BME280;10083;51.038;7.012;2023-06-04T02:09:47;103660.97;;;10.84;100.00
19845;BME280;10083;51.038;7.012;2023-06-04T02:12:14;103655.81;;;10.55;100.00
19845;BME280;10083;51.038;7.012;2023-06-04T02:14:47;103641.91;;;10.71;100.00
19845;BME280;10083;51.038;7.012;2023-06-04T02:17:15;103637.66;;;10.80;100.00
19845;BME280;10083;51.038;7.012;2023-06-04T02:19:43;103634.88;;;10.76;100.00
19845;BME280;10083;51.038;7.012;2023-06-04T02:22:16;103635.34;;;10.58;100.00
19845;BME280;10083;51.038;7.012;2023-06-04T02:24:45;103624.56;;;10.55;100.00
19845;BME280;10083;51.038;7.012;2023-06-04T02:27:13;103614.75;;;10.56;100.00
19845;BME280;10083;51.038;7.012;2023-06-04T02:29:49;103610.81;;;10.38;100.00
19845;BME280;10083;51.038;7.012;2023-06-04T02:32:17;103600.03;;;10.35;100.00
19845;BME280;10083;51.038;7.012;2023-06-04T02:34:55;103594.50;;;10.29;100.00
19845;BME280;10083;51.038;7.012;2023-06-04T02:37:24;103580.06;;;10.23;100.00
19845;BME280;10083;51.038;7.012;2023-06-04T02:39:57;103561.34;;;10.24;100.00
19845;BME280;10083;51.038;7.012;2023-06-04T02:42:24;103551.50;;;10.22;100.00
19845;BME280;10083;51.038;7.012;2023-06-04T02:44:55;103535.31;;;10.17;100.00
19845;BME280;10083;51.038;7.012;2023-06-04T02:47:22;103516.09;;;9.99;100.00
19845;BME280;10083;51.038;7.012;2023-06-04T02:49:50;103489.34;;;9.99;100.00
19845;BME280;10083;51.038;7.012;2023-06-04T02:52:17;103458.13;;;9.99;100.00
19845;BME280;10083;51.038;7.012;2023-06-04T02:54:46;103443.63;;;9.90;100.00
19845;BME280;10083;51.038;7.012;2023-06-04T02:57:16;103408.66;;;9.84;100.00
19845;BME280;10083;51.038;7.012;2023-06-04T02:59:43;103386.66;;;9.95;100.00
19845;BME280;10083;51.038;7.012;2023-06-04T03:02:15;103375.91;;;9.94;100.00
19845;BME280;10083;51.038;7.012;2023-06-04T03:04:42;103354.47;;;9.94;100.00
19845;BME280;10083;51.038;7.012;2023-06-04T03:07:12;103351.75;;;9.91;100.00
19845;BME280;10083;51.038;7.012;2023-06-04T03:09:40;103321.16;;;9.80;100.00
19845;BME280;10083;51.038;7.012;2023-06-04T03:12:10;103309.56;;;9.79;100.00
19845;BME280;10083;51.038;7.012;2023-06-04T03:14:37;103280.03;;;9.75;100.00
19845;BME280;10083;51.038;7.012;2023-06-04T03:17:15;103258.56;;;9.72;100.00
19845;BME280;10083;51.038;7.012;2023-06-04T03:19:42;103216.38;;;9.57;100.00
19845;BME280;10083;51.038;7.012;2023-06-04T03:22:10;103185.09;;;9.54;100.00
19845;BME280;10083;51.038;7.012;2023-06-04T03:24:39;103151.28;;;9.58;100.00
19845;BME280;10083;51.038;7.012;2023-06-04T03:27:24;103136.19;;;9.62;100.00
19845;BME280;10083;51.038;7.012;2023-06-04T03:29:51;103138.09;;;9.67;100.00
19845;BME280;10083;51.038;7.012;2023-06-04T03:32:18;103135.22;;;9.57;100.00
19845;BME280;10083;51.038;7.012;2023-06-04T03:34:47;103114.72;;;9.59;100.00
19845;BME280;10083;51.038;7.012;2023-06-04T03:37:37;103094.31;;;9.64;100.00
19845;BME280;10083;51.038;7.012;2023-06-04T03:40:06;103089.94;;;9.67;100.00
19845;BME280;10083;51.038;7.012;2023-06-04T03:42:52;103065.81;;;9.64;100.00
19845;BME280;10083;51.038;7.012;2023-06-04T03:45:20;103054.97;;;9.58;100.00
19845;BME280;10083;51.038;7.012;2023-06-04T03:47:48;103039.00;;;9.63;100.00
19845;BME280;10083;51.038;7.012;2023-06-04T03:50:18;103021.09;;;9.57;100.00
19845;BME280;10083;51.038;7.012;2023-06-04T03:52:45;102997.03;;;9.59;100.00
19845;BME280;10083;51.038;7.012;2023-06-04T03:55:14;102975.69;;;9.62;100.00
19845;BME280;10083;51.038;7.012;2023-06-04T03:57:45;102978.47;;;9.68;100.00
19845;BME280;10083;51.038;7.012;2023-06-04T04:00:16;102980.31;;;9.72;100.00
19845;BME280;10083;51.038;7.012;2023-06-04T04:02:48;102974.06;;;9.71;100.00
19845;BME280;10083;51.038;7.012;2023-06-04T04:05:22;102970.66;;;9.81;100.00
19845;BME280;10083;51.038;7.012;2023-06-04T04:07:55;102954.44;;;9.71;100.00
19845;BME280;10083;51.038;7.012;2023-06-04T04:10:25;102915.19;;;9.70;100.00
19845;BME280;10083;51.038;7.012;2023-06-04T04:12:59;102871.69;;;9.83;100.00
19845;BME280;10083;51.038;7.012;2023-06-04T04:15:32;102897.63;;;9.90;100.00
19845;BME280;10083;51.038;7.012;2023-06-04T04:18:10;102903.09;;;9.97;100.00
19845;BME280;10083;51.038;7.012;2023-06-04T04:20:39;102898.66;;;10.01;100.00
19845;BME280;10083;51.038;7.012;2023-06-04T04:23:13;102907.72;;;10.09;100.00
19845;BME280;10083;51.038;7.012;2023-06-04T04:25:44;102916.00;;;10.26;100.00
19845;BME280;10083;51.038;7.012;2023-06-04T04:28:22;102934.09;;;10.43;100.00
19845;BME280;10083;51.038;7.012;2023-06-04T04:30:51;102962.75;;;10.51;100.00
19845;BME280;10083;51.038;7.012;2023-06-04T04:33:21;102976.06;;;10.46;100.00
19845;BME280;10083;51.038;7.012;2023-06-04T04:35:51;102979.84;;;10.63;100.00
19845;BME280;10083;51.038;7.012;2023-06-04T04:38:22;103009.50;;;10.77;100.00
19845;BME280;10083;51.038;7.012;2023-06-04T04:40:55;103048.06;;;10.89;100.00
19845;BME280;10083;51.038;7.012;2023-06-04T04:43:31;103075.94;;;11.01;100.00
19845;BME280;10083;51.038;7.012;2023-06-04T04:46:05;103109.91;;;11.03;100.00
19845;BME280;10083;51.038;7.012;2023-06-04T04:48:34;103124.44;;;11.20;100.00
19845;BME280;10083;51.038;7.012;2023-06-04T04:51:03;103150.56;;;11.38;100.00
19845;BME280;10083;51.038;7.012;2023-06-04T04:53:30;103185.56;;;11.47;100.00
19845;BME280;10083;51.038;7.012;2023-06-04T04:56:10;103220.72;;;11.71;100.00
19845;BME280;10083;51.038;7.012;2023-06-04T04:58:41;103270.22;;;11.90;100.00
19845;BME280;10083;51.038;7.012;2023-06-04T05:01:23;103311.56;;;12.04;100.00
19845;BME280;10083;51.038;7.012;2023-06-04T05:03:51;103336.84;;;12.21;100.00
19845;BME280;10083;51.038;7.012;2023-06-04T05:06:19;103362.09;;;12.39;100.00
19845;BME280;10083;51.038;7.012;2023-06-04T05:08:47;103386.44;;;12.54;100.00
19845;BME280;10083;51.038;7.012;2023-06-04T05:11:16;103399.09;;;12.64;100.00
19845;BME280;10083;51.038;7.012;2023-06-04T05:13:45;103418.88;;;12.70;100.00
19845;BME280;10083;51.038;7.012;2023-06-04T05:16:13;103431.63;;;12.87;100.00
19845;BME280;10083;51.038;7.012;2023-06-04T05:18:43;103430.91;;;13.04;100.00
19845;BME280;10083;51.038;7.012;2023-06-04T05:21:27;103442.63;;;13.11;100.00
19845;BME280;10083;51.038;7.012;2023-06-04T05:23:59;103445.50;;;13.26;100.00
19845;BME280;10083;51.038;7.012;2023-06-04T05:26:32;103448.22;;;13.31;100.00
19845;BME280;10083;51.038;7.012;2023-06-04T05:29:04;103443.78;;;13.40;100.00
19845;BME280;10083;51.038;7.012;2023-06-04T05:31:36;103449.25;;;13.46;100.00
19845;BME280;10083;51.038;7.012;2023-06-04T05:34:07;103440.38;;;13.61;100.00
19845;BME280;10083;51.038;7.012;2023-06-04T05:36:40;103442.28;;;13.80;100.00
19845;BME280;10083;51.038;7.012;2023-06-04T05:39:08;103446.88;;;13.90;100.00
19845;BME280;10083;51.038;7.012;2023-06-04T05:42:00;103453.09;;;13.85;100.00
19845;BME280;10083;51.038;7.012;2023-06-04T05:44:27;103460.38;;;13.96;100.00
19845;BME280;10083;51.038;7.012;2023-06-04T05:46:57;103465.84;;;14.09;100.00
19845;BME280;10083;51.038;7.012;2023-06-04T05:49:25;103468.56;;;14.19;100.00
19845;BME280;10083;51.038;7.012;2023-06-04T05:51:57;103415.59;;;14.27;100.00
19845;BME280;10083;51.038;7.012;2023-06-04T05:54:24;103409.31;;;14.28;100.00
19845;BME280;10083;51.038;7.012;2023-06-04T05:57:04;103398.66;;;14.48;100.00
19845;BME280;10083;51.038;7.012;2023-06-04T05:59:31;103380.69;;;14.62;100.00
19845;BME280;10083;51.038;7.012;2023-06-04T06:02:05;103391.50;;;14.70;100.00
19845;BME280;10083;51.038;7.012;2023-06-04T06:04:34;103376.25;;;14.75;100.00
19845;BME280;10083;51.038;7.012;2023-06-04T06:07:02;103409.53;;;14.86;100.00
19845;BME280;10083;51.038;7.012;2023-06-04T06:09:29;103372.66;;;14.99;100.00
19845;BME280;10083;51.038;7.012;2023-06-04T06:12:10;103362.78;;;15.01;100.00
19845;BME280;10083;51.038;7.012;2023-06-04T06:14:39;103342.97;;;15.18;100.00
19845;BME280;10083;51.038;7.012;2023-06-04T06:17:07;103322.25;;;15.25;100.00
19845;BME280;10083;51.038;7.012;2023-06-04T06:19:36;103274.50;;;15.54;100.00
19845;BME280;10083;51.038;7.012;2023-06-04T06:22:12;103255.50;;;15.78;100.00
19845;BME280;10083;51.038;7.012;2023-06-04T06:24:39;103208.59;;;15.92;100.00
19845;BME280;10083;51.038;7.012;2023-06-04T06:27:09;103195.03;;;15.96;100.00
19845;BME280;10083;51.038;7.012;2023-06-04T06:29:36;103210.38;;;15.91;100.00
19845;BME280;10083;51.038;7.012;2023-06-04T06:32:17;103203.03;;;16.10;100.00
19845;BME280;10083;51.038;7.012;2023-06-04T06:34:45;103176.78;;;16.25;100.00
19845;BME280;10083;51.038;7.012;2023-06-04T06:37:13;103252.44;;;16.35;100.00
19845;BME280;10083;51.038;7.012;2023-06-04T06:39:40;103191.09;;;16.38;100.00
19845;BME280;10083;51.038;7.012;2023-06-04T06:42:16;103164.94;;;16.43;100.00
19845;BME280;10083;51.038;7.012;2023-06-04T06:44:45;103158.50;;;16.59;100.00
19845;BME280;10083;51.038;7.012;2023-06-04T06:47:14;103179.06;;;16.79;100.00
19845;BME280;10083;51.038;7.012;2023-06-04T06:49:41;103176.13;;;16.98;100.00
19845;BME280;10083;51.038;7.012;2023-06-04T06:52:32;103132.59;;;17.16;100.00
19845;BME280;10083;51.038;7.012;2023-06-04T06:54:59;103139.41;;;17.45;100.00
19845;BME280;10083;51.038;7.012;2023-06-04T06:57:27;103056.13;;;17.62;100.00
19845;BME280;10083;51.038;7.012;2023-06-04T06:59:54;103033.41;;;17.71;100.00
19845;BME280;10083;51.038;7.012;2023-06-04T07:02:23;103052.19;;;17.81;100.00
19845;BME280;10083;51.038;7.012;2023-06-04T07:04:50;103000.44;;;17.95;100.00
19845;BME280;10083;51.038;7.012;2023-06-04T07:07:48;103034.31;;;18.20;100.00
19845;BME280;10083;51.038;7.012;2023-06-04T07:10:15;102976.34;;;18.26;100.00
19845;BME280;10083;51.038;7.012;2023-06-04T07:12:43;102988.19;;;18.22;100.00
19845;BME280;10083;51.038;7.012;2023-06-04T07:15:12;102949.94;;;18.35;100.00
19845;BME280;10083;51.038;7.012;2023-06-04T07:17:41;102903.63;;;18.44;100.00
19845;BME280;10083;51.038;7.012;2023-06-04T07:20:08;102885.19;;;18.60;100.00
19845;BME280;10083;51.038;7.012;2023-06-04T07:22:37;102947.66;;;18.59;100.00
19845;BME280;10083;51.038;7.012;2023-06-04T07:25:07;102925.72;;;18.68;100.00
19845;BME280;10083;51.038;7.012;2023-06-04T07:27:43;102922.03;;;18.72;100.00
19845;BME280;10083;51.038;7.012;2023-06-04T07:30:10;102927.31;;;18.78;100.00
19845;BME280;10083;51.038;7.012;2023-06-04T07:32:38;102951.25;;;18.99;100.00
19845;BME280;10083;51.038;7.012;2023-06-04T07:35:05;102938.41;;;19.07;100.00
19845;BME280;10083;51.038;7.012;2023-06-04T07:37:33;102931.06;;;19.49;100.00
19845;BME280;10083;51.038;7.012;2023-06-04T07:40:00;102818.78;;;19.46;100.00
19845;BME280;10083;51.038;7.012;2023-06-04T07:42:35;102856.09;;;19.73;100.00
19845;BME280;10083;51.038;7.012;2023-06-04T07:45:03;102650.00;;;20.12;100.00
19845;BME280;10083;51.038;7.012;2023-06-04T07:47:35;102715.13;;;20.46;100.00
19845;BME280;10083;51.038;7.012;2023-06-04T07:50:03;102661.88;;;20.63;100.00
19845;BME280;10083;51.038;7.012;2023-06-04T07:52:31;102738.75;;;20.71;100.00
19845;BME280;10083;51.038;7.012;2023-06-04T07:55:17;102526.66;;;20.87;100.00
19845;BME280;10083;51.038;7.012;2023-06-04T07:57:46;102579.25;;;21.14;100.00
19845;BME280;10083;51.038;7.012;2023-06-04T08:00:19;102491.69;;;21.23;100.00
19845;BME280;10083;51.038;7.012;2023-06-04T08:02:46;102490.34;;;21.33;100.00
19845;BME280;10083;51.038;7.012;2023-06-04T08:05:16;102352.16;;;21.35;100.00
19845;BME280;10083;51.038;7.012;2023-06-04T08:07:43;102403.97;;;21.35;100.00
19845;BME280;10083;51.038;7.012;2023-06-04T08:10:29;102363.44;;;21.48;100.00
19845;BME280;10083;51.038;7.012;2023-06-04T08:12:58;102424.59;;;21.62;100.00
19845;BME280;10083;51.038;7.012;2023-06-04T08:15:27;102356.63;;;21.78;100.00
19845;BME280;10083;51.038;7.012;2023-06-04T08:17:54;102332.69;;;21.85;100.00
19845;BME280;10083;51.038;7.012;2023-06-04T08:20:51;102399.50;;;21.96;100.00
19845;BME280;10083;51.038;7.012;2023-06-04T08:23:18;102314.19;;;22.12;100.00
19845;BME280;10083;51.038;7.012;2023-06-04T08:25:54;102316.56;;;22.19;100.00
19845;BME280;10083;51.038;7.012;2023-06-04T08:28:22;102233.22;;;22.12;100.00
19845;BME280;10083;51.038;7.012;2023-06-04T08:30:50;102250.41;;;22.14;100.00
19845;BME280;10083;51.038;7.012;2023-06-04T08:33:17;102314.38;;;22.46;100.00
19845;BME280;10083;51.038;7.012;2023-06-04T08:35:51;102287.06;;;22.46;100.00
19845;BME280;10083;51.038;7.012;2023-06-04T08:38:18;102272.00;;;22.37;100.00
19845;BME280;10083;51.038;7.012;2023-06-04T08:40:52;102295.19;;;22.47;100.00
19845;BME280;10083;51.038;7.012;2023-06-04T08:43:22;102227.38;;;22.38;100.00
19845;BME280;10083;51.038;7.012;2023-06-04T08:45:49;102219.84;;;22.43;100.00
19845;BME280;10083;51.038;7.012;2023-06-04T08:48:18;102251.69;;;22.80;100.00
19845;BME280;10083;51.038;7.012;2023-06-04T08:50:51;102302.41;;;22.86;100.00
19845;BME280;10083;51.038;7.012;2023-06-04T08:53:21;102249.63;;;22.85;100.00
19845;BME280;10083;51.038;7.012;2023-06-04T08:55:50;102205.13;;;22.65;100.00
19845;BME280;10083;51.038;7.012;2023-06-04T08:58:31;102214.75;;;22.90;100.00
19845;BME280;10083;51.038;7.012;2023-06-04T09:00:59;102177.06;;;23.14;100.00
19845;BME280;10083;51.038;7.012;2023-06-04T09:03:36;102329.00;;;23.54;100.00
19845;BME280;10083;51.038;7.012;2023-06-04T09:06:04;102179.44;;;23.55;100.00
19845;BME280;10083;51.038;7.012;2023-06-04T09:08:40;102278.63;;;23.75;100.00
19845;BME280;10083;51.038;7.012;2023-06-04T09:11:13;102182.75;;;23.27;100.00
19845;BME280;10083;51.038;7.012;2023-06-04T09:13:52;102197.31;;;23.45;100.00
19845;BME280;10083;51.038;7.012;2023-06-04T09:16:20;102190.22;;;23.40;100.00
19845;BME280;10083;51.038;7.012;2023-06-04T09:18:47;102268.22;;;23.82;100.00
19845;BME280;10083;51.038;7.012;2023-06-04T09:21:14;102182.22;;;23.70;100.00
19845;BME280;10083;51.038;7.012;2023-06-04T09:23:57;102210.16;;;23.93;100.00
19845;BME280;10083;51.038;7.012;2023-06-04T09:26:24;102098.81;;;23.77;100.00
19845;BME280;10083;51.038;7.012;2023-06-04T09:28:57;102194.16;;;23.85;100.00
19845;BME280;10083;51.038;7.012;2023-06-04T09:31:25;102079.47;;;23.96;100.00
19845;BME280;10083;51.038;7.012;2023-06-04T09:33:56;102083.28;;;23.62;100.00
19845;BME280;10083;51.038;7.012;2023-06-04T09:36:29;102210.91;;;24.59;100.00
19845;BME280;10083;51.038;7.012;2023-06-04T09:38:57;102044.84;;;24.11;100.00
19845;BME280;10083;51.038;7.012;2023-06-04T09:41:24;102021.63;;;24.48;100.00
19845;BME280;10083;51.038;7.012;2023-06-04T09:44:00;102081.00;;;24.17;100.00
19845;BME280;10083;51.038;7.012;2023-06-04T09:46:29;101997.06;;;24.16;100.00
19845;BME280;10083;51.038;7.012;2023-06-04T09:49:01;102043.03;;;24.41;100.00
19845;BME280;10083;51.038;7.012;2023-06-04T09:51:29;102111.31;;;24.90;100.00
19845;BME280;10083;51.038;7.012;2023-06-04T09:53:59;101955.94;;;25.04;100.00
19845;BME280;10083;51.038;7.012;2023-06-04T09:56:29;102120.56;;;25.17;100.00
19845;BME280;10083;51.038;7.012;2023-06-04T09:58:59;101991.81;;;25.71;100.00
19845;BME280;10083;51.038;7.012;2023-06-04T10:01:30;101973.44;;;25.16;100.00
19845;BME280;10083;51.038;7.012;2023-06-04T10:04:02;101940.63;;;25.96;100.00
19845;BME280;10083;51.038;7.012;2023-06-04T10:06:38;101991.41;;;26.16;100.00
19845;BME280;10083;51.038;7.012;2023-06-04T10:09:07;101942.91;;;26.54;100.00
19845;BME280;10083;51.038;7.012;2023-06-04T10:11:40;101826.63;;;26.41;100.00
19845;BME280;10083;51.038;7.012;2023-06-04T10:14:32;101892.44;;;26.93;100.00
19845;BME280;10083;51.038;7.012;2023-06-04T10:17:03;101843.84;;;26.69;100.00
19845;BME280;10083;51.038;7.012;2023-06-04T10:19:32;101929.84;;;26.71;100.00
19845;BME280;10083;51.038;7.012;2023-06-04T10:22:02;101855.06;;;26.91;100.00
19845;BME280;10083;51.038;7.012;2023-06-04T10:24:33;101873.66;;;27.60;100.00
19845;BME280;10083;51.038;7.012;2023-06-04T10:27:01;101816.06;;;28.03;100.00
19845;BME280;10083;51.038;7.012;2023-06-04T10:29:40;101889.22;;;27.72;100.00
19845;BME280;10083;51.038;7.012;2023-06-04T10:32:14;101760.50;;;28.43;100.00
19845;BME280;10083;51.038;7.012;2023-06-04T10:34:42;101628.66;;;28.70;100.00
19845;BME280;10083;51.038;7.012;2023-06-04T10:37:20;101609.44;;;29.00;100.00
19845;BME280;10083;51.038;7.012;2023-06-04T10:39:51;101833.84;;;27.88;100.00
19845;BME280;10083;51.038;7.012;2023-06-04T10:42:20;101685.53;;;28.60;100.00
19845;BME280;10083;51.038;7.012;2023-06-04T10:44:50;101794.72;;;28.18;100.00
19845;BME280;10083;51.038;7.012;2023-06-04T10:47:22;101753.16;;;28.32;100.00
19845;BME280;10083;51.038;7.012;2023-06-04T10:49:50;101684.09;;;28.33;100.00
19845;BME280;10083;51.038;7.012;2023-06-04T10:52:32;101684.16;;;28.65;100.00
19845;BME280;10083;51.038;7.012;2023-06-04T10:55:03;101649.28;;;29.07;100.00
19845;BME280;10083;51.038;7.012;2023-06-04T10:57:38;101647.31;;;28.55;100.00
19845;BME280;10083;51.038;7.012;2023-06-04T11:00:10;101579.75;;;28.07;100.00
19845;BME280;10083;51.038;7.012;2023-06-04T11:02:52;101532.59;;;30.27;100.00
19845;BME280;10083;51.038;7.012;2023-06-04T11:05:20;101579.00;;;29.11;100.00
19845;BME280;10083;51.038;7.012;2023-06-04T11:07:49;101566.44;;;29.39;100.00
19845;BME280;10083;51.038;7.012;2023-06-04T11:10:17;101359.06;;;31.94;100.00
19845;BME280;10083;51.038;7.012;2023-06-04T11:12:46;101614.44;;;31.25;100.00
19845;BME280;10083;51.038;7.012;2023-06-04T11:15:15;101565.50;;;29.59;100.00
19845;BME280;10083;51.038;7.012;2023-06-04T11:18:04;101748.38;;;31.43;100.00
19845;BME280;10083;51.038;7.012;2023-06-04T11:20:31;101640.22;;;30.78;100.00
19845;BME280;10083;51.038;7.012;2023-06-04T11:22:59;101493.59;;;30.68;100.00
19845;BME280;10083;51.038;7.012;2023-06-04T11:25:29;101399.00;;;31.83;100.00
19845;BME280;10083;51.038;7.012;2023-06-04T11:28:15;101462.06;;;32.17;100.00
19845;BME280;10083;51.038;7.012;2023-06-04T11:30:55;101323.00;;;32.81;100.00
19845;BME280;10083;51.038;7.012;2023-06-04T11:33:24;101379.41;;;32.38;100.00
19845;BME280;10083;51.038;7.012;2023-06-04T11:35:53;101555.28;;;31.17;100.00
19845;BME280;10083;51.038;7.012;2023-06-04T11:38:20;101459.78;;;30.93;100.00
19845;BME280;10083;51.038;7.012;2023-06-04T11:40:57;101443.53;;;31.18;100.00
19845;BME280;10083;51.038;7.012;2023-06-04T11:43:30;101365.81;;;32.53;100.00
19845;BME280;10083;51.038;7.012;2023-06-04T11:46:13;101289.88;;;32.80;96.99
19845;BME280;10083;51.038;7.012;2023-06-04T11:48:40;101482.75;;;32.76;100.00
19845;BME280;10083;51.038;7.012;2023-06-04T11:51:24;101537.59;;;32.11;100.00
19845;BME280;10083;51.038;7.012;2023-06-04T11:53:53;101387.94;;;32.88;99.89
19845;BME280;10083;51.038;7.012;2023-06-04T11:56:24;101497.06;;;31.46;100.00
19845;BME280;10083;51.038;7.012;2023-06-04T11:58:54;101425.78;;;32.28;99.71
19845;BME280;10083;51.038;7.012;2023-06-04T12:01:23;101587.88;;;31.89;100.00
19845;BME280;10083;51.038;7.012;2023-06-04T12:03:56;101488.97;;;33.89;100.00
19845;BME280;10083;51.038;7.012;2023-06-04T12:06:24;101420.97;;;33.67;100.00
19845;BME280;10083;51.038;7.012;2023-06-04T12:08:53;101437.09;;;31.54;98.07
19845;BME280;10083;51.038;7.012;2023-06-04T12:11:28;101317.34;;;31.96;94.85
19845;BME280;10083;51.038;7.012;2023-06-04T12:13:58;101515.56;;;32.27;100.00
19845;BME280;10083;51.038;7.012;2023-06-04T12:16:34;101435.13;;;32.62;98.32
19845;BME280;10083;51.038;7.012;2023-06-04T12:19:05;101531.31;;;33.75;100.00
19845;BME280;10083;51.038;7.012;2023-06-04T12:21:59;101460.66;;;33.59;100.00
19845;BME280;10083;51.038;7.012;2023-06-04T12:24:27;101461.09;;;33.73;99.85
19845;BME280;10083;51.038;7.012;2023-06-04T12:27:02;101383.44;;;33.29;97.07
19845;BME280;10083;51.038;7.012;2023-06-04T12:29:29;101601.25;;;33.96;100.00
19845;BME280;10083;51.038;7.012;2023-06-04T12:32:09;101513.81;;;33.90;100.00
19845;BME280;10083;51.038;7.012;2023-06-04T12:34:37;101465.13;;;33.10;99.78
19845;BME280;10083;51.038;7.012;2023-06-04T12:37:07;101483.16;;;33.32;100.00
19845;BME280;10083;51.038;7.012;2023-06-04T12:39:34;101442.41;;;34.07;100.00
19845;BME280;10083;51.038;7.012;2023-06-04T12:42:07;101304.13;;;34.80;96.49
19845;BME280;10083;51.038;7.012;2023-06-04T12:44:35;101398.50;;;34.67;99.12
19845;BME280;10083;51.038;7.012;2023-06-04T12:47:19;101547.84;;;34.26;100.00
19845;BME280;10083;51.038;7.012;2023-06-04T12:49:48;101572.44;;;33.37;100.00
19845;BME280;10083;51.038;7.012;2023-06-04T12:52:19;101482.84;;;33.77;100.00
19845;BME280;10083;51.038;7.012;2023-06-04T12:54:47;101421.53;;;33.87;98.12
19845;BME280;10083;51.038;7.012;2023-06-04T12:57:20;101528.97;;;33.96;100.00
19845;BME280;10083;51.038;7.012;2023-06-04T12:59:47;101425.75;;;34.56;99.68
19845;BME280;10083;51.038;7.012;2023-06-04T13:02:22;101431.88;;;35.38;100.00